Time;durP1;ratioP1;P1;durP2;ratioP2;P2;SDS_P1;SDS_P2;PMS_P1;PMS_P2;Temp;Humidity;BMP_temperature;BMP_pressure;BME280_temperature;BME280_humidity;BME280_pressure;Samples;Min_cycle;Max_cycle;Signal;HPM_P1;HPM_P2
2021/07/08 00:03:03;;;;;;;0.68;0.40;;;;;;;17.72;76.33;92856.38;6298595;22;20042;-94
2021/07/08 00:06:35;;;;;;;;;;;;;;;;;;;;;
2021/07/08 00:14:22;;;;;;;;;;;;;;;;;;;;;
2021/07/08 00:17:30;;;;;;;0.88;0.60;;;;;;;17.58;77.16;92838.06;6313865;22;20042;-94
2021/07/08 00:20:51;;;;;;;0.38;0.32;;;;;;;17.26;77.64;92795.28;6289812;22;20073;-96
2021/07/08 00:27:16;;;;;;;0.20;0.20;;;;;;;17.62;76.76;92846.16;6295775;22;20349;-95
2021/07/08 00:30:23;;;;;;;;;;;;;;;;;;;;;
2021/07/08 00:34:03;;;;;;;;;;;;;;;;;;;;;
2021/07/08 00:40:47;;;;;;;;;;;;;;;;;;;;;
2021/07/08 00:47:50;;;;;;;0.10;0.10;;;;;;;17.62;77.25;92838.97;6264108;22;20047;-95
2021/07/08 00:50:53;;;;;;;0.30;0.30;;;;;;;17.62;77.06;92840.84;6217171;22;20078;-93
2021/07/08 00:54:12;;;;;;;;;;;;;;;;;;;;;
2021/07/08 00:58:06;;;;;;;;;;;;;;;;;;;;;
2021/07/08 01:01:33;;;;;;;1.33;0.45;;;;;;;17.21;77.33;92795.47;6210315;22;20019;-93
2021/07/08 01:04:53;;;;;;;0.10;0.10;;;;;;;17.17;77.63;92783.97;6264267;22;20050;-95
2021/07/08 01:08:21;;;;;;;;;;;;;;;;;;;;;
2021/07/08 01:11:55;;;;;;;0.55;0.50;;;;;;;17.20;78.12;92782.56;6308033;22;20019;-94
2021/07/08 01:18:00;;;;;;;0.30;0.30;;;;;;;17.19;78.17;92781.78;6316665;22;20027;-94
2021/07/08 01:21:38;;;;;;;0.10;0.10;;;;;;;17.14;78.30;92774.03;6293562;22;20069;-95
2021/07/08 01:24:43;;;;;;;0.30;0.30;;;;;;;17.32;78.18;92792.47;6321120;22;20042;-94
2021/07/08 01:43:16;;;;;;;;;;;;;;;;;;;;;
2021/07/08 01:46:39;;;;;;;;;;;;;;;;;;;;;
2021/07/08 01:49:30;;;;;;;;;;;;;;;;;;;;;
2021/07/08 01:52:53;;;;;;;;;;;;;;;;;;;;;
2021/07/08 01:56:17;;;;;;;0.28;0.28;;;;;;;17.59;76.62;92804.44;6215793;23;20110;-95
2021/07/08 02:00:04;;;;;;;;;;;;;;;;;;;;;
2021/07/08 02:03:33;;;;;;;0.20;0.20;;;;;;;17.28;78.14;92758.69;6204600;23;20024;-95
2021/07/08 02:13:25;;;;;;;0.22;0.22;;;;;;;17.55;77.97;92801.66;6299998;22;20020;-93
2021/07/08 02:16:44;;;;;;;;;;;;;;;;;;;;;
2021/07/08 02:20:09;;;;;;;;;;;;;;;;;;;;;
2021/07/08 02:23:32;;;;;;;0.22;0.22;;;;;;;17.30;79.82;92784.84;6309819;22;20046;-95
2021/07/08 02:29:51;;;;;;;0.20;0.20;;;;;;;17.13;79.55;92755.84;6196322;23;20065;-95
2021/07/08 02:37:05;;;;;;;;;;;;;;;;;;;;;
2021/07/08 02:40:38;;;;;;;0.10;0.10;;;;;;;17.46;79.55;92803.59;6146790;22;20558;-94
2021/07/08 02:44:05;;;;;;;0.20;0.20;;;;;;;17.15;79.30;92737.78;6297824;22;20042;-93
2021/07/08 02:50:58;;;;;;;;;;;;;;;;;;;;;
2021/07/08 02:54:20;;;;;;;;;;;;;;;;;;;;;
2021/07/08 02:57:42;;;;;;;0.30;0.30;;;;;;;17.44;75.78;92756.28;6311472;22;20049;-95
2021/07/08 03:01:03;;;;;;;;;;;;;;;;;;;;;
2021/07/08 03:04:19;;;;;;;0.20;0.20;;;;;;;17.69;76.81;92796.88;6308194;22;20050;-93
2021/07/08 03:07:45;;;;;;;;;;;;;;;;;;;;;
2021/07/08 03:10:51;;;;;;;0.25;0.25;;;;;;;17.56;78.05;92774.13;6311568;22;20031;-92
2021/07/08 03:17:05;;;;;;;0.30;0.30;;;;;;;17.35;78.65;92739.69;6309473;22;20047;-93
2021/07/08 03:20:17;;;;;;;;;;;;;;;;;;;;;
2021/07/08 03:23:36;;;;;;;;;;;;;;;;;;;;;
2021/07/08 03:27:40;;;;;;;;;;;;;;;;;;;;;
2021/07/08 03:31:25;;;;;;;;;;;;;;;;;;;;;
2021/07/08 03:34:31;;;;;;;0.30;0.30;;;;;;;17.63;79.97;92800.03;6304556;22;20501;-94
2021/07/08 03:37:41;;;;;;;0.10;0.10;;;;;;;17.59;79.59;92784.03;6287882;22;20086;-95
2021/07/08 03:40:49;;;;;;;;;;;;;;;;;;;;;
2021/07/08 03:44:23;;;;;;;;;;;;;;;;;;;;;
2021/07/08 03:57:39;;;;;;;0.30;0.30;;;;;;;17.49;79.70;92810.88;6266285;22;20019;-95
2021/07/08 04:01:55;;;;;;;;;;;;;;;;;;;;;
2021/07/08 04:12:52;;;;;;;;;;;;;;;;;;;;;
2021/07/08 04:24:09;;;;;;;;;;;;;;;;;;;;;
2021/07/08 04:27:32;;;;;;;;;;;;;;;;;;;;;
2021/07/08 04:31:07;;;;;;;;;;;;;;;;;;;;;
2021/07/08 04:34:05;;;;;;;0.25;0.25;;;;;;;17.89;79.93;92798.00;6307481;22;20494;-94
2021/07/08 04:37:36;;;;;;;;;;;;;;;;;;;;;
2021/07/08 04:48:01;;;;;;;;;;;;;;;;;;;;;
2021/07/08 04:51:08;;;;;;;0.20;0.20;;;;;;;18.17;78.90;92759.63;6307838;22;20098;-94
2021/07/08 04:53:43;;;;;;;0.57;0.50;;;;;;;18.46;78.55;92799.25;6296142;22;20007;-77
2021/07/08 04:56:10;;;;;;;0.50;0.50;;;;;;;18.66;78.20;92813.53;6337546;22;20026;-77
2021/07/08 04:58:35;;;;;;;0.40;0.40;;;;;;;18.74;78.40;92814.56;6337628;22;20011;-76
2021/07/08 05:01:01;;;;;;;0.50;0.50;;;;;;;18.80;78.50;92812.50;6310236;22;20073;-77
2021/07/08 05:03:26;;;;;;;0.30;0.30;;;;;;;18.68;76.16;92813.22;6336053;22;20011;-77
2021/07/08 05:05:53;;;;;;;0.40;0.40;;;;;;;18.67;76.69;92825.69;6337582;22;20003;-77
2021/07/08 05:08:19;;;;;;;0.68;0.57;;;;;;;18.69;77.51;92828.03;6284297;22;20039;-76
2021/07/08 05:10:44;;;;;;;0.35;0.35;;;;;;;18.70;77.83;92829.56;6337364;22;20019;-77
2021/07/08 05:13:10;;;;;;;0.75;0.65;;;;;;;18.75;78.02;92836.53;6310108;22;20346;-77
2021/07/08 05:15:36;;;;;;;0.35;0.35;;;;;;;18.80;75.63;92837.16;6309957;22;20101;-77
2021/07/08 05:18:04;;;;;;;0.28;0.28;;;;;;;18.71;76.78;92831.91;6309804;22;20340;-77
2021/07/08 05:20:30;;;;;;;0.22;0.22;;;;;;;18.78;77.32;92839.34;6337387;22;20007;-76
2021/07/08 05:23:00;;;;;;;1.45;0.90;;;;;;;18.87;77.34;92829.44;6309596;22;20056;-77
2021/07/08 05:25:26;;;;;;;0.68;0.63;;;;;;;18.95;77.30;92841.03;6309677;22;20019;-77
2021/07/08 05:27:51;;;;;;;0.63;0.50;;;;;;;19.03;76.40;92847.38;6309997;22;20206;-76
2021/07/08 05:30:17;;;;;;;0.75;0.65;;;;;;;19.21;75.86;92848.69;6337362;22;20478;-77
2021/07/08 05:32:43;;;;;;;1.33;0.50;;;;;;;19.43;74.44;92844.06;6337133;22;20341;-77
2021/07/08 05:35:09;;;;;;;0.17;0.17;;;;;;;19.52;74.40;92844.72;6309956;22;20015;-77
2021/07/08 05:37:35;;;;;;;0.50;0.50;;;;;;;19.58;74.58;92837.31;6309304;22;20010;-77
2021/07/08 05:40:02;;;;;;;0.43;0.43;;;;;;;19.66;73.64;92831.88;6309492;22;20015;-76
2021/07/08 05:42:28;;;;;;;0.85;0.60;;;;;;;19.50;74.48;92845.06;6336981;22;20003;-77
2021/07/08 05:44:54;;;;;;;0.30;0.30;;;;;;;19.58;73.84;92839.97;6283998;22;20011;-77
2021/07/08 05:47:20;;;;;;;0.20;0.20;;;;;;;19.61;73.64;92842.75;6309586;22;20082;-77
2021/07/08 05:49:46;;;;;;;0.60;0.55;;;;;;;19.53;73.90;92833.75;6336859;22;20515;-77
2021/07/08 05:52:12;;;;;;;0.50;0.50;;;;;;;19.46;74.95;92832.78;6309421;22;20060;-77
2021/07/08 05:54:37;;;;;;;0.28;0.28;;;;;;;19.59;74.11;92821.06;6336204;22;20019;-77
2021/07/08 05:57:03;;;;;;;0.20;0.20;;;;;;;20.63;69.76;92818.69;6337282;22;20014;-77
2021/07/08 05:59:29;;;;;;;0.20;0.20;;;;;;;20.20;71.41;92817.50;6309409;22;20011;-77
2021/07/08 06:01:55;;;;;;;0.28;0.28;;;;;;;20.18;71.87;92812.53;6309470;22;20046;-77
2021/07/08 06:04:21;;;;;;;0.43;0.43;;;;;;;21.69;65.96;92800.31;6337304;22;20093;-77
2021/07/08 06:06:47;;;;;;;0.57;0.57;;;;;;;22.15;65.54;92797.06;6309776;22;20033;-77
2021/07/08 06:09:12;;;;;;;0.68;0.68;;;;;;;23.74;60.14;92793.31;6309261;22;20507;-77
2021/07/08 06:11:38;;;;;;;0.63;0.63;;;;;;;24.30;58.84;92795.22;6309451;22;20042;-77
2021/07/08 06:14:04;;;;;;;0.57;0.57;;;;;;;24.65;56.18;92797.53;6283582;22;20072;-77
2021/07/08 06:16:29;;;;;;;0.40;0.40;;;;;;;23.80;59.71;92789.22;6337094;22;20014;-77
2021/07/08 06:18:55;;;;;;;0.50;0.50;;;;;;;24.11;58.57;92790.78;6309356;22;20097;-76
2021/07/08 06:21:21;;;;;;;0.77;0.77;;;;;;;25.50;53.81;92790.66;6309036;22;20011;-77
2021/07/08 06:23:46;;;;;;;0.88;0.68;;;;;;;24.19;57.59;92807.69;6336741;22;20381;-77
2021/07/08 06:26:12;;;;;;;0.63;0.60;;;;;;;23.57;60.04;92797.28;6283589;22;20019;-77
2021/07/08 06:28:39;;;;;;;0.20;0.20;;;;;;;22.83;62.13;92804.47;6336879;22;20034;-77
2021/07/08 06:31:04;;;;;;;0.35;0.35;;;;;;;22.48;63.47;92796.59;6308931;22;20019;-77
2021/07/08 06:33:30;;;;;;;0.60;0.60;;;;;;;24.25;59.05;92792.84;6309353;22;20045;-77
2021/07/08 06:35:55;;;;;;;1.02;0.70;;;;;;;24.86;55.99;92790.88;6336315;22;20453;-77
2021/07/08 06:38:22;;;;;;;0.30;0.30;;;;;;;23.74;60.16;92790.66;6309168;22;20015;-77
2021/07/08 06:40:49;;;;;;;0.52;0.52;;;;;;;22.72;63.31;92782.19;6309272;22;20078;-76
2021/07/08 06:43:16;;;;;;;0.68;0.68;;;;;;;24.02;60.21;92779.59;6308928;22;20010;-77
2021/07/08 06:45:42;;;;;;;0.55;0.55;;;;;;;23.96;60.77;92776.47;6336644;22;20014;-76
2021/07/08 06:48:09;;;;;;;0.20;0.20;;;;;;;22.74;62.65;92787.13;6309004;22;20015;-76
2021/07/08 06:50:36;;;;;;;0.30;0.30;;;;;;;22.23;66.63;92791.56;6336683;22;20015;-76
2021/07/08 06:53:03;;;;;;;0.57;0.43;;;;;;;22.57;65.43;92807.81;6308611;22;20413;-76
2021/07/08 06:55:29;;;;;;;0.43;0.43;;;;;;;22.58;65.49;92814.69;6336597;22;20007;-77
2021/07/08 06:57:55;;;;;;;0.60;0.60;;;;;;;22.52;65.24;92816.13;6336558;22;20019;-77
2021/07/08 07:00:29;;;;;;;0.43;0.43;;;;;;;22.18;64.97;92807.03;6309165;22;20022;-76
2021/07/08 07:02:57;;;;;;;1.30;1.05;;;;;;;21.71;67.77;92815.97;6336302;22;20018;-77
2021/07/08 07:05:24;;;;;;;0.28;0.28;;;;;;;21.83;67.26;92816.59;6336442;22;20011;-76
2021/07/08 07:07:50;;;;;;;0.68;0.68;;;;;;;22.03;66.94;92817.41;6336646;22;20048;-77
2021/07/08 07:10:16;;;;;;;0.75;0.68;;;;;;;21.90;67.31;92809.88;6309105;22;20442;-77
2021/07/08 07:12:43;;;;;;;0.75;0.47;;;;;;;21.74;67.90;92817.91;6309145;22;20129;-76
2021/07/08 07:15:10;;;;;;;0.45;0.45;;;;;;;21.59;67.20;92806.97;6336599;22;20011;-76
2021/07/08 07:17:38;;;;;;;0.85;0.68;;;;;;;21.47;69.05;92815.03;6282939;22;20005;-77
2021/07/08 07:20:04;;;;;;;0.60;0.57;;;;;;;21.46;68.02;92813.50;6308941;22;20015;-77
2021/07/08 07:22:30;;;;;;;0.70;0.70;;;;;;;21.38;69.31;92819.75;6282716;22;20018;-77
2021/07/08 07:24:55;;;;;;;0.70;0.65;;;;;;;21.46;68.82;92820.72;6336377;22;20442;-77
2021/07/08 07:27:21;;;;;;;0.45;0.45;;;;;;;21.37;68.38;92826.97;6336607;22;20018;-77
2021/07/08 07:29:47;;;;;;;1.17;1.00;;;;;;;21.26;67.97;92817.97;6282640;22;20011;-77
2021/07/08 07:32:12;;;;;;;0.40;0.40;;;;;;;20.94;70.78;92817.16;6282776;22;20009;-77
2021/07/08 07:34:38;;;;;;;1.65;0.82;;;;;;;20.78;70.15;92804.66;6336390;22;20019;-77
2021/07/08 07:37:04;;;;;;;1.92;1.10;;;;;;;20.76;70.45;92806.06;6336465;22;20022;-76
2021/07/08 07:39:30;;;;;;;0.60;0.60;;;;;;;20.76;71.39;92806.06;6282730;22;20011;-77
2021/07/08 07:41:55;;;;;;;1.13;1.00;;;;;;;20.82;70.74;92812.69;6336042;22;20450;-77
2021/07/08 07:44:21;;;;;;;0.70;0.55;;;;;;;21.00;69.97;92811.25;6336405;22;20434;-77
2021/07/08 07:46:46;;;;;;;0.57;0.52;;;;;;;20.71;71.51;92816.97;6336141;22;20371;-77
2021/07/08 07:49:13;;;;;;;1.27;0.82;;;;;;;20.57;71.59;92804.09;6336187;22;20011;-77
2021/07/08 07:51:39;;;;;;;1.25;0.60;;;;;;;20.54;72.67;92807.41;6308255;22;20351;-77
2021/07/08 07:54:05;;;;;;;1.25;0.88;;;;;;;20.58;72.18;92814.38;6281962;22;20072;-76
2021/07/08 07:56:31;;;;;;;0.40;0.40;;;;;;;20.69;72.23;92813.88;6308561;22;20501;-76
2021/07/08 07:58:56;;;;;;;0.60;0.60;;;;;;;20.81;73.49;92821.03;6308331;22;20442;-77
2021/07/08 08:01:22;;;;;;;0.47;0.45;;;;;;;20.86;71.54;92820.78;6336253;22;20438;-76
2021/07/08 08:03:50;;;;;;;2.58;0.95;;;;;;;21.00;72.21;92829.88;6308489;22;20011;-77
2021/07/08 08:09:00;;;;;;;1.08;1.00;;;;;;;20.79;72.44;92846.09;6312918;22;20015;-76
2021/07/08 08:11:26;;;;;;;0.30;0.30;;;;;;;20.86;72.90;92856.13;6308450;22;20326;-76
2021/07/08 08:13:52;;;;;;;0.95;0.82;;;;;;;20.64;71.96;92846.81;6282940;22;20031;-77
2021/07/08 08:16:17;;;;;;;0.30;0.30;;;;;;;20.64;71.03;92846.81;6335922;22;20446;-77
2021/07/08 08:18:43;;;;;;;0.30;0.25;;;;;;;20.27;73.28;92844.28;6308556;22;20133;-77
2021/07/08 08:21:09;;;;;;;0.73;0.73;;;;;;;20.14;74.17;92859.47;6335970;22;20042;-77
2021/07/08 08:23:35;;;;;;;0.63;0.63;;;;;;;20.10;74.40;92855.19;6308084;22;20030;-76
2021/07/08 08:26:01;;;;;;;0.63;0.60;;;;;;;20.06;74.36;92852.44;6335994;22;20492;-77
2021/07/08 08:28:27;;;;;;;0.60;0.60;;;;;;;20.07;74.48;92853.97;6308449;22;20010;-76
2021/07/08 08:30:53;;;;;;;0.28;0.28;;;;;;;19.89;75.19;92844.72;6335563;22;20049;-77
2021/07/08 08:33:20;;;;;;;0.73;0.65;;;;;;;19.89;74.77;92839.41;6308515;22;20086;-77
2021/07/08 08:35:45;;;;;;;0.43;0.43;;;;;;;19.91;74.75;92834.53;6335611;22;20442;-77
2021/07/08 08:38:11;;;;;;;0.68;0.57;;;;;;;19.93;74.43;92827.78;6308212;22;20054;-77
2021/07/08 08:40:37;;;;;;;0.63;0.52;;;;;;;19.98;74.26;92829.41;6308394;22;20424;-77
2021/07/08 08:43:03;;;;;;;1.42;1.05;;;;;;;20.00;74.34;92834.41;6308122;22;20023;-77
2021/07/08 08:45:29;;;;;;;0.25;0.25;;;;;;;19.88;74.81;92830.66;6308293;22;20010;-77
2021/07/08 08:48:06;;;;;;;0.60;0.60;;;;;;;20.09;73.64;92838.47;6335740;22;20022;-77
2021/07/08 08:50:38;;;;;;;0.57;0.40;;;;;;;19.90;72.91;92819.69;6335874;22;20140;-77
2021/07/08 08:53:06;;;;;;;0.20;0.20;;;;;;;19.83;73.30;92838.06;6334962;22;20098;-77
2021/07/08 08:55:35;;;;;;;0.70;0.70;;;;;;;19.72;73.36;92851.84;6335633;22;20082;-77
2021/07/08 08:58:06;;;;;;;0.60;0.52;;;;;;;19.81;73.59;92846.38;6308164;22;20018;-77
2021/07/08 09:00:35;;;;;;;0.60;0.40;;;;;;;19.69;74.56;92838.44;6309485;22;20010;-77
2021/07/08 09:03:02;;;;;;;0.22;0.22;;;;;;;19.65;73.82;92803.75;6337522;22;20015;-77
2021/07/08 09:05:28;;;;;;;0.65;0.63;;;;;;;19.64;73.85;92802.22;6337579;22;20011;-77
2021/07/08 09:08:20;;;;;;;0.55;0.50;;;;;;;19.62;74.30;92814.28;6337627;22;20077;-77
2021/07/08 09:10:47;;;;;;;;;;;;;;;19.70;73.70;92824.84;6337829;22;20028;-77
2021/07/08 09:13:13;;;;;;;0.52;0.47;;;;;;;19.64;73.92;92796.16;6284447;22;19906;-77
2021/07/08 09:15:40;;;;;;;0.60;0.47;;;;;;;19.63;74.74;92783.97;6284376;22;20018;-77
2021/07/08 09:18:05;;;;;;;0.68;0.45;;;;;;;19.45;75.85;92786.09;6337351;22;20011;-77
2021/07/08 09:20:33;;;;;;;3.10;1.75;;;;;;;19.32;76.79;92785.34;6309742;22;20067;-77
2021/07/08 09:23:14;;;;;;;0.50;0.50;;;;;;;19.33;77.80;92766.41;6337184;22;20071;-77
2021/07/08 09:25:41;;;;;;;0.20;0.20;;;;;;;19.24;78.58;92746.41;6337399;22;20014;-77
2021/07/08 09:28:21;;;;;;;0.60;0.60;;;;;;;19.23;79.01;92766.09;6283959;22;20005;-77
2021/07/08 09:31:00;;;;;;;0.60;0.45;;;;;;;18.52;82.17;92797.94;6337113;22;20015;-77
2021/07/08 09:33:40;;;;;;;0.10;0.10;;;;;;;18.01;84.30;92911.22;6284353;22;20011;-76
2021/07/08 09:36:16;;;;;;;0.10;0.10;;;;;;;16.42;83.46;92734.19;6337176;22;20152;-76
2021/07/08 09:38:45;;;;;;;0.10;0.10;;;;;;;15.78;86.37;92739.44;6309703;22;20016;-76
2021/07/08 09:41:22;;;;;;;0.10;0.10;;;;;;;15.56;87.68;92780.69;6337662;22;19999;-75
2021/07/08 09:43:48;;;;;;;0.20;0.20;;;;;;;15.41;87.43;92829.41;6337043;22;20095;-76
2021/07/08 09:46:15;;;;;;;0.10;0.10;;;;;;;15.39;85.63;92867.72;6309608;22;20003;-76
2021/07/08 09:49:11;;;;;;;0.45;0.40;;;;;;;15.40;83.02;92877.97;6337231;22;20042;-76
2021/07/08 09:51:39;;;;;;;0.43;0.43;;;;;;;15.57;82.52;92866.69;6309400;22;20358;-76
2021/07/08 09:54:07;;;;;;;0.55;0.55;;;;;;;15.68;81.47;92859.25;6309888;22;20022;-76
2021/07/08 09:56:57;;;;;;;0.20;0.20;;;;;;;15.82;81.48;92861.78;6336981;22;20136;-76
2021/07/08 09:59:35;;;;;;;0.20;0.20;;;;;;;16.01;82.17;92872.84;6336860;22;20006;-76
2021/07/08 10:02:01;;;;;;;0.30;0.30;;;;;;;16.31;79.23;92864.28;6336407;22;20011;-76
2021/07/08 10:04:27;;;;;;;0.30;0.30;;;;;;;16.51;80.79;92844.38;6283709;22;20041;-76
2021/07/08 10:06:54;;;;;;;0.30;0.22;;;;;;;16.74;81.93;92855.50;6309556;22;20011;-76
2021/07/08 10:09:21;;;;;;;0.20;0.20;;;;;;;16.83;82.77;92859.72;6336939;22;20022;-76
2021/07/08 10:11:50;;;;;;;0.57;0.50;;;;;;;16.83;83.51;92865.00;6336516;22;20458;-76
2021/07/08 10:14:17;;;;;;;0.30;0.30;;;;;;;16.82;81.71;92875.91;6336658;22;20011;-77
2021/07/08 10:16:48;;;;;;;0.32;0.32;;;;;;;17.03;79.20;92860.91;6336874;22;20006;-76
2021/07/08 10:19:17;;;;;;;0.38;0.38;;;;;;;17.20;82.42;92865.34;6337062;22;20011;-77
2021/07/08 10:21:45;;;;;;;0.20;0.20;;;;;;;17.30;82.51;92866.88;6336807;22;20334;-77
2021/07/08 10:24:13;;;;;;;0.22;0.22;;;;;;;17.42;82.88;92863.53;6336895;22;20108;-77
2021/07/08 10:26:39;;;;;;;0.22;0.22;;;;;;;17.58;81.96;92864.53;6337007;22;20026;-76
2021/07/08 10:29:06;;;;;;;0.20;0.20;;;;;;;17.68;82.16;92858.88;6336305;22;20011;-77
2021/07/08 10:31:32;;;;;;;0.22;0.22;;;;;;;17.72;83.00;92863.53;6309321;22;20022;-77
2021/07/08 10:34:17;;;;;;;0.28;0.28;;;;;;;17.74;81.06;92864.75;6336691;22;20007;-77
2021/07/08 10:36:46;;;;;;;0.20;0.20;;;;;;;17.24;81.56;92858.31;6336850;22;20010;-76
2021/07/08 10:39:15;;;;;;;0.38;0.38;;;;;;;17.32;82.58;92853.31;6337358;22;20048;-77
2021/07/08 10:41:44;;;;;;;0.30;0.30;;;;;;;17.38;82.52;92839.59;6309343;22;20338;-77
2021/07/08 10:44:42;;;;;;;0.20;0.20;;;;;;;17.43;84.15;92857.16;6336683;22;20442;-76
2021/07/08 10:47:29;;;;;;;0.25;0.25;;;;;;;17.56;82.47;92861.47;6337031;22;20027;-77
2021/07/08 10:49:55;;;;;;;0.10;0.10;;;;;;;17.92;81.71;92865.44;6336576;22;20358;-76
2021/07/08 10:55:01;;;;;;;0.17;0.17;;;;;;;18.27;81.43;92851.97;6336694;22;20022;-77
2021/07/08 10:57:37;;;;;;;0.57;0.40;;;;;;;18.57;83.19;92849.97;6336327;22;20034;-76
2021/07/08 11:00:08;;;;;;;0.20;0.20;;;;;;;18.87;81.83;92855.19;6337135;22;20082;-77
2021/07/08 11:03:00;;;;;;;0.47;0.32;;;;;;;19.04;80.81;92854.19;6336309;22;20022;-76
2021/07/08 11:05:55;;;;;;;0.47;0.40;;;;;;;18.94;80.02;92855.41;6276003;22;20022;-77
2021/07/08 11:08:46;;;;;;;1.45;0.93;;;;;;;18.52;79.31;92852.81;6336569;22;20042;-76
2021/07/08 11:11:21;;;;;;;0.20;0.20;;;;;;;18.62;80.74;92843.69;6308719;22;20461;-77
2021/07/08 11:13:52;;;;;;;0.10;0.10;;;;;;;18.75;80.48;92832.00;6308879;22;20017;-77
2021/07/08 11:16:49;;;;;;;0.20;0.20;;;;;;;18.99;81.65;92819.94;6336504;22;20025;-76
2021/07/08 11:19:21;;;;;;;0.20;0.20;;;;;;;19.23;80.09;92829.78;6308713;22;20426;-77
2021/07/08 11:22:02;;;;;;;0.15;0.15;;;;;;;19.36;79.94;92823.38;6308550;22;20067;-77
2021/07/08 11:24:53;;;;;;;0.15;0.15;;;;;;;19.25;77.76;92812.44;6308562;22;20014;-77
2021/07/08 11:27:21;;;;;;;0.32;0.32;;;;;;;18.82;78.77;92805.75;6320015;22;20054;-77
2021/07/08 11:29:58;;;;;;;0.57;0.57;;;;;;;19.11;78.93;92817.28;6308592;22;20015;-77
2021/07/08 11:32:36;;;;;;;0.68;0.32;;;;;;;18.50;81.64;92816.03;6307592;22;20056;-76
2021/07/08 11:35:19;;;;;;;0.20;0.20;;;;;;;18.68;81.09;92815.88;6307454;22;20071;-77
2021/07/08 11:38:03;;;;;;;0.32;0.32;;;;;;;19.02;78.79;92808.66;6303728;22;20029;-77
2021/07/08 11:40:49;;;;;;;0.30;0.30;;;;;;;18.89;80.48;92831.72;6306468;22;20011;-77
2021/07/08 11:43:29;;;;;;;0.30;0.30;;;;;;;18.95;78.35;92833.06;6335343;22;20017;-77
2021/07/08 11:46:17;;;;;;;0.52;0.52;;;;;;;19.01;75.76;92817.72;6307040;22;20064;-77
2021/07/08 11:48:48;;;;;;;0.20;0.20;;;;;;;19.47;80.28;92819.16;6334949;22;20018;-77
2021/07/08 11:51:21;;;;;;;1.08;0.30;;;;;;;18.60;81.52;92819.38;6307867;22;20022;-76
2021/07/08 11:53:50;;;;;;;0.20;0.20;;;;;;;17.65;81.76;92825.13;6334632;22;20088;-77
2021/07/08 11:56:17;;;;;;;0.43;0.40;;;;;;;17.32;84.40;92816.28;6281060;22;20353;-77
2021/07/08 11:58:43;;;;;;;0.10;0.10;;;;;;;17.51;84.33;92808.69;6307449;22;20102;-77
2021/07/08 12:01:12;;;;;;;0.30;0.30;;;;;;;17.64;83.94;92796.31;6335163;22;20053;-76
2021/07/08 12:03:47;;;;;;;0.22;0.22;;;;;;;17.92;83.19;92793.19;6334759;22;20003;-77
2021/07/08 12:06:25;;;;;;;0.45;0.45;;;;;;;18.26;83.46;92789.44;6307910;22;20022;-77
2021/07/08 12:08:55;;;;;;;0.30;0.30;;;;;;;18.54;80.54;92788.88;6306222;22;20098;-76
2021/07/08 12:11:41;;;;;;;1.30;0.45;;;;;;;18.50;78.69;92794.06;6306567;22;20039;-77
2021/07/08 12:14:11;;;;;;;0.20;0.20;;;;;;;17.23;81.03;92803.88;6334578;22;20465;-76
2021/07/08 12:16:37;;;;;;;0.35;0.35;;;;;;;16.87;83.26;92800.94;6307606;22;20487;-77
2021/07/08 12:19:18;;;;;;;0.30;0.30;;;;;;;17.22;82.23;92789.06;6306974;22;20006;-77
2021/07/08 12:21:46;;;;;;;0.85;0.68;;;;;;;18.41;79.83;92764.22;6306502;22;20011;-77
2021/07/08 12:24:29;;;;;;;0.47;0.47;;;;;;;19.07;77.72;92768.63;6335199;22;20089;-77
2021/07/08 12:27:13;;;;;;;0.35;0.35;;;;;;;19.47;78.28;92757.34;6333911;22;20037;-77
2021/07/08 12:29:42;;;;;;;0.20;0.20;;;;;;;19.71;76.34;92745.94;6281561;22;20015;-77
2021/07/08 12:32:12;;;;;;;0.50;0.50;;;;;;;20.20;75.64;92745.75;6305739;22;20315;-77
2021/07/08 12:34:42;;;;;;;0.32;0.32;;;;;;;20.05;74.80;92738.50;6335447;22;20017;-77
2021/07/08 12:37:14;;;;;;;0.32;0.32;;;;;;;20.04;75.01;92716.47;6336510;22;20295;-77
2021/07/08 12:39:41;;;;;;;0.32;0.32;;;;;;;19.82;74.43;92701.84;6309679;22;20034;-77
2021/07/08 12:42:17;;;;;;;0.22;0.22;;;;;;;18.99;76.70;92693.38;6336372;22;20013;-77
2021/07/08 12:44:45;;;;;;;0.17;0.17;;;;;;;19.29;77.94;92675.28;6336631;22;20446;-77
2021/07/08 12:47:11;;;;;;;0.30;0.30;;;;;;;19.65;77.41;92672.88;6308941;22;20019;-77
2021/07/08 12:49:38;;;;;;;0.50;0.47;;;;;;;18.99;78.25;92672.16;6309357;22;20011;-77
2021/07/08 12:52:04;;;;;;;0.20;0.20;;;;;;;19.01;79.82;92669.94;6308677;22;20404;-77
2021/07/08 12:54:30;;;;;;;0.85;0.70;;;;;;;19.06;79.83;92660.97;6309304;22;20023;-77
2021/07/08 12:57:13;;;;;;;0.20;0.20;;;;;;;19.26;80.76;92649.44;6309028;22;20049;-77
2021/07/08 12:59:55;;;;;;;0.20;0.20;;;;;;;19.40;80.70;92643.00;6336682;22;20381;-77
2021/07/08 13:02:26;;;;;;;0.67;0.40;;;;;;;19.21;80.31;92644.38;6337141;22;20343;-77
2021/07/08 13:05:12;;;;;;;0.10;0.10;;;;;;;19.15;81.66;92669.59;6308888;22;20007;-77
2021/07/08 13:07:40;;;;;;;0.10;0.10;;;;;;;18.58;80.47;92691.69;6336415;22;20006;-77
2021/07/08 13:10:11;;;;;;;0.30;0.30;;;;;;;17.95;81.37;92700.63;6309165;22;20026;-77
2021/07/08 13:12:38;;;;;;;0.28;0.28;;;;;;;17.80;83.45;92695.91;6309074;22;20014;-77
2021/07/08 13:15:06;;;;;;;0.43;0.30;;;;;;;17.81;83.81;92678.91;6282526;22;20022;-76
2021/07/08 13:17:33;;;;;;;0.88;0.52;;;;;;;17.73;83.95;92677.91;6336532;22;20099;-77
2021/07/08 13:20:13;;;;;;;0.10;0.10;;;;;;;17.65;84.44;92655.72;6282476;22;20014;-76
2021/07/08 13:22:42;;;;;;;0.32;0.32;;;;;;;17.73;85.00;92640.81;6308618;22;20090;-77
2021/07/08 13:25:20;;;;;;;0.65;0.52;;;;;;;17.79;85.55;92634.25;6308241;22;20056;-77
2021/07/08 13:27:48;;;;;;;0.60;0.45;;;;;;;17.91;86.88;92652.06;6334978;22;20036;-77
2021/07/08 13:30:24;;;;;;;0.52;0.43;;;;;;;17.90;85.83;92650.53;6308754;22;20327;-77
2021/07/08 13:33:13;;;;;;;0.20;0.20;;;;;;;17.49;83.30;92646.78;6336458;22;20370;-77
2021/07/08 13:35:46;;;;;;;0.28;0.28;;;;;;;17.34;84.82;92597.13;6282571;22;20014;-76
2021/07/08 13:38:18;;;;;;;0.50;0.43;;;;;;;17.35;85.37;92583.56;6308258;22;20163;-77
2021/07/08 13:41:06;;;;;;;0.98;0.70;;;;;;;17.41;86.87;92573.56;6336087;22;20010;-77
2021/07/08 13:43:43;;;;;;;0.52;0.50;;;;;;;17.53;89.54;92586.84;6335986;22;20341;-77
2021/07/08 13:46:14;;;;;;;0.20;0.20;;;;;;;17.50;87.92;92589.38;6307996;22;20026;-77
2021/07/08 13:48:41;;;;;;;0.20;0.20;;;;;;;17.33;85.49;92614.09;6334416;22;20014;-77
2021/07/08 13:51:08;;;;;;;0.20;0.20;;;;;;;16.43;88.65;92651.19;6307655;22;20028;-77
2021/07/08 13:53:35;;;;;;;0.17;0.17;;;;;;;16.48;87.64;92658.16;6307674;22;20018;-76
2021/07/08 13:56:00;;;;;;;0.50;0.50;;;;;;;16.47;88.19;92658.50;6282500;22;20018;-77
2021/07/08 13:58:27;;;;;;;0.28;0.28;;;;;;;16.49;88.51;92643.88;6335445;22;20022;-77
2021/07/08 14:00:53;;;;;;;0.43;0.43;;;;;;;16.57;89.05;92650.19;6335469;22;20354;-76
2021/07/08 14:03:19;;;;;;;0.63;0.50;;;;;;;16.58;88.49;92644.59;6335700;22;20094;-77
2021/07/08 14:05:44;;;;;;;0.38;0.38;;;;;;;16.64;88.55;92650.50;6335726;22;20030;-77
2021/07/08 14:08:12;;;;;;;0.75;0.63;;;;;;;16.74;88.64;92651.97;6334627;22;20014;-77
2021/07/08 14:10:38;;;;;;;0.20;0.20;;;;;;;16.81;88.50;92653.03;6335699;22;20006;-77
2021/07/08 14:13:04;;;;;;;0.40;0.40;;;;;;;16.87;88.08;92637.00;6334921;22;20007;-77
2021/07/08 14:15:29;;;;;;;0.57;0.57;;;;;;;16.97;88.56;92652.47;6335988;22;20069;-77
2021/07/08 14:17:56;;;;;;;0.85;0.60;;;;;;;16.94;88.10;92626.69;6307837;22;20049;-77
2021/07/08 14:20:23;;;;;;;0.50;0.50;;;;;;;16.94;88.17;92624.06;6307339;22;20346;-77
2021/07/08 14:22:49;;;;;;;0.30;0.30;;;;;;;16.92;87.86;92599.81;6308001;22;20006;-77
2021/07/08 14:25:15;;;;;;;0.30;0.30;;;;;;;16.85;88.40;92590.50;6335073;22;20033;-77
2021/07/08 14:27:40;;;;;;;0.30;0.30;;;;;;;16.81;88.75;92588.84;6336330;22;20009;-78
2021/07/08 14:30:07;;;;;;;1.17;1.02;;;;;;;16.70;88.54;92561.97;6308810;22;20497;-77
2021/07/08 14:32:32;;;;;;;0.20;0.20;;;;;;;16.70;88.21;92559.31;6307214;22;20083;-77
2021/07/08 14:34:58;;;;;;;0.17;0.17;;;;;;;16.80;87.32;92558.97;6307761;22;20018;-77
2021/07/08 14:37:24;;;;;;;0.52;0.40;;;;;;;16.45;84.29;92577.66;6282237;22;20420;-77
2021/07/08 14:39:50;;;;;;;0.30;0.30;;;;;;;16.26;85.46;92577.31;6339944;22;20042;-78
2021/07/08 14:42:33;;;;;;;0.38;0.38;;;;;;;16.17;85.79;92556.22;6311678;22;20045;-78
2021/07/08 14:45:08;;;;;;;0.57;0.55;;;;;;;16.19;86.76;92548.00;6335167;22;20015;-77
2021/07/08 14:47:34;;;;;;;0.25;0.25;;;;;;;16.20;87.58;92537.09;6335268;22;20525;-77
2021/07/08 14:50:02;;;;;;;0.57;0.57;;;;;;;16.24;87.70;92531.97;6282281;22;20059;-77
2021/07/08 14:52:28;;;;;;;0.30;0.30;;;;;;;16.31;88.09;92534.09;6335150;22;20006;-77
2021/07/08 14:54:53;;;;;;;0.40;0.40;;;;;;;16.27;85.55;92530.53;6301621;22;20300;-77